Levering, Michigan
Current Conditions -  °F | °C
As of 5:11 AM on Thursday 29 Jan 2015 (Local Time) from KPLN Reporting Station
Overcast Overcast  
Wind Chill: 28°   Ceiling: 2900
Heat Index: 28°   Visibility: 10mi
Dew Point: 13°   Wind: 3mph
Humidity: 53%   Direction: 160°SSE
Pressure: 29.81"   Gusts: NA
Location:  45.64°N, 84.79°W
Report Text: KPLN 291011Z AUTO 16003KT 10SM OVC029 M02/M11 A2981 RMK AO2 T10221106
Loading
Personal Weather Stations






























Interactive Weather Map New forecast layout! Learn more

10-Day Weather Forecast

Advertisements
Track Severe Weather on mobile